Impacts TAF Board INFO
FOR SITUATIONAL AWARENESS. NOT TO BE USED FOR FLIGHT PLANNING PURPOSES.
IDs:

KMIA - Miami Intl, FL, US

Issued at 1500 UTC 29 Apr 2017
Updated at 1532 UTC 29 Apr 2017
Potential Impact None Slight Moderate High
Time1453Z 29/16Z 29/17Z 29/18Z 29/19Z 29/20Z 29/21Z 29/22Z 29/23Z 30/00Z 30/01Z 30/02Z 30/03Z 30/04Z>>
Type OBS PRVL PRVL PRVL PRVL PRVL PRVL PRVL PRVL PRVL PRVL PRVL PRVL PRVL
VIS 10 >6 >6 >6 >6 >6 >6 >6 >6 >6 >6 >6 >6 >6
CIG 40 50 50 50 50 50 50 50 50 50 -- -- -- --
Cover BKN BKN BKN BKN BKN BKN BKN BKN BKN BKN SCT SCT SCT SCT
FltCat VFR VFR VFR VFR VFR VFR VFR VFR VFR VFR VFR VFR VFR VFR
WX -- -- -- -- -- -- -- -- -- -- -- -- -- --
WDir 110 110 110 110 110 110 110 110 110 110 100 100 100 100
WSpd 15 18 18 18 18 18 18 18 18 18 15 15 15 15
WGst -- 24 24 24 24 24 24 24 24 24 -- -- -- --

Raw TAF
KMIA 291500Z 2915/3012 11018G24KT P6SM SCT030 BKN050
  FM300100 10015KT P6SM SCT250


Raw METAR
KMIA 291453Z 11015KT 10SM SCT028 BKN040 BKN250 29/20 A3015 RMK AO2 SLP211 T02890200 53010 $
KMIA 291353Z 10017G22KT 10SM SCT028 BKN034 BKN250 29/21 A3014 RMK AO2 SLP207 T02890206 $
KMIA 291253Z 12013KT 10SM SCT025 BKN250 28/21 A3013 RMK AO2 SLP204 T02780206 $

METAR Board
Radar Display
Forecast Discussion

FOR SITUATIONAL AWARENESS. NOT TO BE USED FOR FLIGHT PLANNING PURPOSES.

Page loaded:  15:32 UTC  |   08:32 AM Pacific  |   09:32 AM Mountain  |   10:32 AM Central  |   11:32 AM Eastern

 

ADVISORIES

FORECASTS

FORECASTS

OBSERVATIONS

USER TOOLS

ABOUT US